sensor_id;sensor_type;location;lat;lon;timestamp;P1;durP1;ratioP1;P2;durP2;ratioP2
50737;SDS011;36703;48.154;17.126;2022-07-04T00:02:39;5.10;;;2.55;;
50737;SDS011;36703;48.154;17.126;2022-07-04T00:06:42;3.80;;;2.30;;
50737;SDS011;36703;48.154;17.126;2022-07-04T00:10:44;3.67;;;2.40;;
50737;SDS011;36703;48.154;17.126;2022-07-04T00:14:45;3.40;;;2.38;;
50737;SDS011;36703;48.154;17.126;2022-07-04T00:18:47;4.70;;;2.25;;
50737;SDS011;36703;48.154;17.126;2022-07-04T00:22:48;5.80;;;2.42;;
50737;SDS011;36703;48.154;17.126;2022-07-04T00:26:49;3.17;;;2.35;;
50737;SDS011;36703;48.154;17.126;2022-07-04T00:30:50;4.55;;;2.47;;
50737;SDS011;36703;48.154;17.126;2022-07-04T00:34:51;3.55;;;2.45;;
50737;SDS011;36703;48.154;17.126;2022-07-04T00:38:52;3.42;;;2.13;;
50737;SDS011;36703;48.154;17.126;2022-07-04T00:42:59;7.50;;;2.30;;
50737;SDS011;36703;48.154;17.126;2022-07-04T00:47:04;3.60;;;2.10;;
50737;SDS011;36703;48.154;17.126;2022-07-04T00:51:07;4.45;;;1.98;;
50737;SDS011;36703;48.154;17.126;2022-07-04T00:55:08;2.80;;;2.10;;
50737;SDS011;36703;48.154;17.126;2022-07-04T00:59:11;2.95;;;1.98;;
50737;SDS011;36703;48.154;17.126;2022-07-04T01:03:12;3.85;;;1.70;;
50737;SDS011;36703;48.154;17.126;2022-07-04T01:07:13;2.22;;;1.80;;
50737;SDS011;36703;48.154;17.126;2022-07-04T01:11:15;2.97;;;1.77;;
50737;SDS011;36703;48.154;17.126;2022-07-04T01:15:17;3.22;;;2.10;;
50737;SDS011;36703;48.154;17.126;2022-07-04T01:19:18;3.00;;;2.28;;
50737;SDS011;36703;48.154;17.126;2022-07-04T01:23:20;2.60;;;2.33;;
50737;SDS011;36703;48.154;17.126;2022-07-04T01:27:21;2.35;;;2.03;;
50737;SDS011;36703;48.154;17.126;2022-07-04T01:31:22;3.70;;;2.15;;
50737;SDS011;36703;48.154;17.126;2022-07-04T01:35:23;6.35;;;2.42;;
50737;SDS011;36703;48.154;17.126;2022-07-04T01:39:26;3.75;;;2.50;;
50737;SDS011;36703;48.154;17.126;2022-07-04T01:43:28;5.10;;;3.28;;
50737;SDS011;36703;48.154;17.126;2022-07-04T01:47:29;5.03;;;3.40;;
50737;SDS011;36703;48.154;17.126;2022-07-04T01:51:31;3.88;;;3.47;;
50737;SDS011;36703;48.154;17.126;2022-07-04T01:55:33;4.20;;;2.90;;
50737;SDS011;36703;48.154;17.126;2022-07-04T01:59:34;5.18;;;3.00;;
50737;SDS011;36703;48.154;17.126;2022-07-04T02:03:53;3.93;;;2.80;;
50737;SDS011;36703;48.154;17.126;2022-07-04T02:07:55;2.83;;;2.50;;
50737;SDS011;36703;48.154;17.126;2022-07-04T02:11:56;3.15;;;2.40;;
50737;SDS011;36703;48.154;17.126;2022-07-04T02:16:15;4.55;;;2.83;;
50737;SDS011;36703;48.154;17.126;2022-07-04T02:20:17;3.00;;;2.67;;
50737;SDS011;36703;48.154;17.126;2022-07-04T02:24:18;3.65;;;2.97;;
50737;SDS011;36703;48.154;17.126;2022-07-04T02:28:20;4.30;;;3.50;;
50737;SDS011;36703;48.154;17.126;2022-07-04T02:32:21;5.28;;;4.55;;
50737;SDS011;36703;48.154;17.126;2022-07-04T02:36:22;8.55;;;6.28;;
50737;SDS011;36703;48.154;17.126;2022-07-04T02:40:23;6.78;;;6.07;;
50737;SDS011;36703;48.154;17.126;2022-07-04T02:44:25;6.72;;;5.22;;
50737;SDS011;36703;48.154;17.126;2022-07-04T02:48:26;6.85;;;5.60;;
50737;SDS011;36703;48.154;17.126;2022-07-04T02:52:27;6.63;;;5.93;;
50737;SDS011;36703;48.154;17.126;2022-07-04T02:56:29;8.90;;;6.13;;
50737;SDS011;36703;48.154;17.126;2022-07-04T03:00:30;10.00;;;6.45;;
50737;SDS011;36703;48.154;17.126;2022-07-04T03:04:31;6.95;;;6.20;;
50737;SDS011;36703;48.154;17.126;2022-07-04T03:08:33;7.90;;;5.82;;
50737;SDS011;36703;48.154;17.126;2022-07-04T03:12:34;6.60;;;5.90;;
50737;SDS011;36703;48.154;17.126;2022-07-04T03:16:36;10.82;;;5.85;;
50737;SDS011;36703;48.154;17.126;2022-07-04T03:20:37;7.35;;;6.32;;
50737;SDS011;36703;48.154;17.126;2022-07-04T03:24:39;9.07;;;6.50;;
50737;SDS011;36703;48.154;17.126;2022-07-04T03:28:40;8.52;;;6.03;;
50737;SDS011;36703;48.154;17.126;2022-07-04T03:32:41;6.72;;;6.03;;
50737;SDS011;36703;48.154;17.126;2022-07-04T03:36:42;7.60;;;6.25;;
50737;SDS011;36703;48.154;17.126;2022-07-04T03:40:43;7.95;;;6.05;;
50737;SDS011;36703;48.154;17.126;2022-07-04T03:44:44;6.82;;;5.95;;
50737;SDS011;36703;48.154;17.126;2022-07-04T03:48:46;9.55;;;5.75;;
50737;SDS011;36703;48.154;17.126;2022-07-04T03:52:47;8.50;;;6.20;;
50737;SDS011;36703;48.154;17.126;2022-07-04T03:56:48;8.63;;;5.63;;
50737;SDS011;36703;48.154;17.126;2022-07-04T04:00:49;6.60;;;5.05;;
50737;SDS011;36703;48.154;17.126;2022-07-04T04:04:51;9.20;;;5.93;;
50737;SDS011;36703;48.154;17.126;2022-07-04T04:09:10;8.07;;;6.05;;
50737;SDS011;36703;48.154;17.126;2022-07-04T04:13:16;14.25;;;6.10;;
50737;SDS011;36703;48.154;17.126;2022-07-04T04:17:18;7.63;;;5.60;;
50737;SDS011;36703;48.154;17.126;2022-07-04T04:21:19;8.55;;;5.53;;
50737;SDS011;36703;48.154;17.126;2022-07-04T04:25:20;6.88;;;5.55;;
50737;SDS011;36703;48.154;17.126;2022-07-04T04:29:22;6.13;;;5.30;;
50737;SDS011;36703;48.154;17.126;2022-07-04T04:33:23;6.95;;;4.82;;
50737;SDS011;36703;48.154;17.126;2022-07-04T04:37:24;7.32;;;5.75;;
50737;SDS011;36703;48.154;17.126;2022-07-04T04:41:26;6.47;;;5.20;;
50737;SDS011;36703;48.154;17.126;2022-07-04T04:45:27;6.97;;;5.82;;
50737;SDS011;36703;48.154;17.126;2022-07-04T04:49:28;10.02;;;6.75;;
50737;SDS011;36703;48.154;17.126;2022-07-04T04:53:30;10.25;;;5.85;;
50737;SDS011;36703;48.154;17.126;2022-07-04T04:57:31;7.18;;;5.85;;
50737;SDS011;36703;48.154;17.126;2022-07-04T05:01:32;6.10;;;5.40;;
50737;SDS011;36703;48.154;17.126;2022-07-04T05:05:34;6.90;;;5.32;;
50737;SDS011;36703;48.154;17.126;2022-07-04T05:09:35;5.38;;;4.88;;
50737;SDS011;36703;48.154;17.126;2022-07-04T05:13:36;6.75;;;5.60;;
50737;SDS011;36703;48.154;17.126;2022-07-04T05:17:38;8.85;;;5.63;;
50737;SDS011;36703;48.154;17.126;2022-07-04T05:21:39;9.23;;;5.15;;
50737;SDS011;36703;48.154;17.126;2022-07-04T05:25:41;11.00;;;4.93;;
50737;SDS011;36703;48.154;17.126;2022-07-04T05:29:42;7.60;;;5.13;;
50737;SDS011;36703;48.154;17.126;2022-07-04T05:33:43;7.50;;;5.28;;
50737;SDS011;36703;48.154;17.126;2022-07-04T05:37:44;7.30;;;4.82;;
50737;SDS011;36703;48.154;17.126;2022-07-04T05:41:46;6.32;;;5.22;;
50737;SDS011;36703;48.154;17.126;2022-07-04T05:45:47;6.75;;;4.97;;
50737;SDS011;36703;48.154;17.126;2022-07-04T05:49:49;4.85;;;3.33;;
50737;SDS011;36703;48.154;17.126;2022-07-04T05:53:51;5.65;;;3.60;;
50737;SDS011;36703;48.154;17.126;2022-07-04T05:57:52;8.30;;;3.50;;
50737;SDS011;36703;48.154;17.126;2022-07-04T06:01:56;7.65;;;3.17;;
50737;SDS011;36703;48.154;17.126;2022-07-04T06:05:58;5.45;;;3.10;;
50737;SDS011;36703;48.154;17.126;2022-07-04T06:09:59;8.32;;;3.10;;
50737;SDS011;36703;48.154;17.126;2022-07-04T06:14:00;6.35;;;3.70;;
50737;SDS011;36703;48.154;17.126;2022-07-04T06:18:01;6.43;;;3.40;;
50737;SDS011;36703;48.154;17.126;2022-07-04T06:22:03;6.00;;;3.25;;
50737;SDS011;36703;48.154;17.126;2022-07-04T06:26:04;3.78;;;3.10;;
50737;SDS011;36703;48.154;17.126;2022-07-04T06:30:06;5.63;;;3.55;;
50737;SDS011;36703;48.154;17.126;2022-07-04T06:34:08;4.70;;;3.40;;
50737;SDS011;36703;48.154;17.126;2022-07-04T06:38:28;5.63;;;3.58;;
50737;SDS011;36703;48.154;17.126;2022-07-04T06:42:30;3.45;;;3.15;;
50737;SDS011;36703;48.154;17.126;2022-07-04T06:46:31;6.93;;;3.05;;
50737;SDS011;36703;48.154;17.126;2022-07-04T06:50:32;4.53;;;3.08;;
50737;SDS011;36703;48.154;17.126;2022-07-04T06:54:35;4.32;;;3.13;;
50737;SDS011;36703;48.154;17.126;2022-07-04T06:58:36;5.20;;;3.60;;
50737;SDS011;36703;48.154;17.126;2022-07-04T07:02:37;5.97;;;3.78;;
50737;SDS011;36703;48.154;17.126;2022-07-04T07:06:38;6.97;;;3.53;;
50737;SDS011;36703;48.154;17.126;2022-07-04T07:10:39;5.05;;;4.00;;
50737;SDS011;36703;48.154;17.126;2022-07-04T07:14:41;4.60;;;3.33;;
50737;SDS011;36703;48.154;17.126;2022-07-04T07:18:42;4.65;;;3.40;;
50737;SDS011;36703;48.154;17.126;2022-07-04T07:22:44;6.43;;;3.63;;
50737;SDS011;36703;48.154;17.126;2022-07-04T07:26:46;5.70;;;3.55;;
50737;SDS011;36703;48.154;17.126;2022-07-04T07:30:47;3.92;;;3.15;;
50737;SDS011;36703;48.154;17.126;2022-07-04T07:34:48;5.22;;;3.20;;
50737;SDS011;36703;48.154;17.126;2022-07-04T07:38:49;4.97;;;3.10;;
50737;SDS011;36703;48.154;17.126;2022-07-04T07:42:51;5.00;;;3.33;;
50737;SDS011;36703;48.154;17.126;2022-07-04T07:46:54;5.28;;;3.38;;
50737;SDS011;36703;48.154;17.126;2022-07-04T07:50:56;7.43;;;4.68;;
50737;SDS011;36703;48.154;17.126;2022-07-04T07:54:57;7.10;;;3.42;;
50737;SDS011;36703;48.154;17.126;2022-07-04T07:58:59;8.95;;;3.70;;
50737;SDS011;36703;48.154;17.126;2022-07-04T08:03:00;4.53;;;2.92;;
50737;SDS011;36703;48.154;17.126;2022-07-04T08:07:19;3.80;;;2.70;;
50737;SDS011;36703;48.154;17.126;2022-07-04T08:11:20;4.68;;;2.50;;
50737;SDS011;36703;48.154;17.126;2022-07-04T08:15:22;4.20;;;2.15;;
50737;SDS011;36703;48.154;17.126;2022-07-04T08:19:23;3.75;;;1.88;;
50737;SDS011;36703;48.154;17.126;2022-07-04T08:23:26;2.33;;;1.70;;
50737;SDS011;36703;48.154;17.126;2022-07-04T08:27:29;5.13;;;2.20;;
50737;SDS011;36703;48.154;17.126;2022-07-04T08:31:30;2.70;;;2.22;;
50737;SDS011;36703;48.154;17.126;2022-07-04T08:35:31;4.57;;;2.20;;
50737;SDS011;36703;48.154;17.126;2022-07-04T08:39:34;3.83;;;2.05;;
50737;SDS011;36703;48.154;17.126;2022-07-04T08:43:35;8.82;;;2.30;;
50737;SDS011;36703;48.154;17.126;2022-07-04T08:47:37;4.32;;;2.40;;
50737;SDS011;36703;48.154;17.126;2022-07-04T08:51:45;8.20;;;2.50;;
50737;SDS011;36703;48.154;17.126;2022-07-04T08:55:53;4.18;;;2.50;;
50737;SDS011;36703;48.154;17.126;2022-07-04T09:00:15;5.07;;;2.67;;
50737;SDS011;36703;48.154;17.126;2022-07-04T09:04:16;12.75;;;2.92;;
50737;SDS011;36703;48.154;17.126;2022-07-04T09:08:18;8.60;;;2.97;;
50737;SDS011;36703;48.154;17.126;2022-07-04T09:12:20;6.35;;;2.72;;
50737;SDS011;36703;48.154;17.126;2022-07-04T09:16:21;4.22;;;2.40;;
50737;SDS011;36703;48.154;17.126;2022-07-04T09:20:23;6.18;;;2.50;;
50737;SDS011;36703;48.154;17.126;2022-07-04T09:24:40;3.95;;;2.38;;
50737;SDS011;36703;48.154;17.126;2022-07-04T09:28:55;5.43;;;2.28;;
50737;SDS011;36703;48.154;17.126;2022-07-04T09:32:58;4.70;;;2.28;;
50737;SDS011;36703;48.154;17.126;2022-07-04T09:37:03;4.65;;;2.20;;
50737;SDS011;36703;48.154;17.126;2022-07-04T09:41:04;3.28;;;1.98;;
50737;SDS011;36703;48.154;17.126;2022-07-04T09:45:24;2.50;;;1.77;;
50737;SDS011;36703;48.154;17.126;2022-07-04T09:49:26;7.55;;;2.17;;
50737;SDS011;36703;48.154;17.126;2022-07-04T09:53:27;2.58;;;1.80;;
50737;SDS011;36703;48.154;17.126;2022-07-04T09:57:29;5.05;;;2.00;;
50737;SDS011;36703;48.154;17.126;2022-07-04T10:01:32;3.47;;;1.50;;
50737;SDS011;36703;48.154;17.126;2022-07-04T10:05:33;3.92;;;1.65;;
50737;SDS011;36703;48.154;17.126;2022-07-04T10:09:35;3.40;;;1.35;;
50737;SDS011;36703;48.154;17.126;2022-07-04T10:13:36;2.60;;;1.23;;
50737;SDS011;36703;48.154;17.126;2022-07-04T10:17:38;6.75;;;1.50;;
50737;SDS011;36703;48.154;17.126;2022-07-04T10:21:40;4.22;;;1.38;;
50737;SDS011;36703;48.154;17.126;2022-07-04T10:25:42;3.70;;;1.42;;
50737;SDS011;36703;48.154;17.126;2022-07-04T10:29:49;1.73;;;1.40;;
50737;SDS011;36703;48.154;17.126;2022-07-04T10:33:51;8.05;;;1.75;;
50737;SDS011;36703;48.154;17.126;2022-07-04T10:37:58;6.97;;;1.73;;
50737;SDS011;36703;48.154;17.126;2022-07-04T10:42:05;6.63;;;1.83;;
50737;SDS011;36703;48.154;17.126;2022-07-04T10:50:27;3.90;;;1.45;;
50737;SDS011;36703;48.154;17.126;2022-07-04T10:54:30;3.90;;;1.48;;
50737;SDS011;36703;48.154;17.126;2022-07-04T10:58:40;5.45;;;1.60;;
50737;SDS011;36703;48.154;17.126;2022-07-04T11:02:43;2.92;;;1.52;;
50737;SDS011;36703;48.154;17.126;2022-07-04T11:10:54;4.93;;;1.70;;
50737;SDS011;36703;48.154;17.126;2022-07-04T11:15:06;6.93;;;1.40;;
50737;SDS011;36703;48.154;17.126;2022-07-04T11:19:07;4.10;;;1.50;;
50737;SDS011;36703;48.154;17.126;2022-07-04T11:23:09;4.82;;;1.50;;
50737;SDS011;36703;48.154;17.126;2022-07-04T11:27:15;3.15;;;1.35;;
50737;SDS011;36703;48.154;17.126;2022-07-04T11:31:17;4.25;;;1.70;;
50737;SDS011;36703;48.154;17.126;2022-07-04T11:35:20;5.60;;;1.88;;
50737;SDS011;36703;48.154;17.126;2022-07-04T11:39:22;7.25;;;1.70;;
50737;SDS011;36703;48.154;17.126;2022-07-04T11:43:23;5.50;;;1.88;;
50737;SDS011;36703;48.154;17.126;2022-07-04T11:47:43;10.70;;;1.63;;
50737;SDS011;36703;48.154;17.126;2022-07-04T11:51:46;3.88;;;1.70;;
50737;SDS011;36703;48.154;17.126;2022-07-04T11:55:52;5.28;;;1.98;;
50737;SDS011;36703;48.154;17.126;2022-07-04T11:59:55;4.00;;;1.45;;
50737;SDS011;36703;48.154;17.126;2022-07-04T12:04:10;1.92;;;1.27;;
50737;SDS011;36703;48.154;17.126;2022-07-04T12:08:16;4.95;;;1.63;;
50737;SDS011;36703;48.154;17.126;2022-07-04T12:12:18;5.78;;;1.95;;
50737;SDS011;36703;48.154;17.126;2022-07-04T12:16:19;2.63;;;1.58;;
50737;SDS011;36703;48.154;17.126;2022-07-04T12:20:24;2.75;;;1.40;;
50737;SDS011;36703;48.154;17.126;2022-07-04T12:24:36;1.80;;;1.20;;
50737;SDS011;36703;48.154;17.126;2022-07-04T12:28:42;3.60;;;1.48;;
50737;SDS011;36703;48.154;17.126;2022-07-04T12:32:43;4.28;;;1.60;;
50737;SDS011;36703;48.154;17.126;2022-07-04T12:45:05;9.38;;;1.58;;
50737;SDS011;36703;48.154;17.126;2022-07-04T12:49:07;5.22;;;1.30;;
50737;SDS011;36703;48.154;17.126;2022-07-04T12:53:18;6.28;;;1.30;;
50737;SDS011;36703;48.154;17.126;2022-07-04T12:57:20;5.78;;;1.40;;
50737;SDS011;36703;48.154;17.126;2022-07-04T13:01:21;6.18;;;1.52;;
50737;SDS011;36703;48.154;17.126;2022-07-04T13:05:22;4.28;;;1.60;;
50737;SDS011;36703;48.154;17.126;2022-07-04T13:09:23;2.65;;;1.58;;
50737;SDS011;36703;48.154;17.126;2022-07-04T13:13:24;6.45;;;1.40;;
50737;SDS011;36703;48.154;17.126;2022-07-04T13:17:26;4.25;;;1.40;;
50737;SDS011;36703;48.154;17.126;2022-07-04T13:21:27;7.22;;;2.05;;
50737;SDS011;36703;48.154;17.126;2022-07-04T13:25:28;2.47;;;1.27;;
50737;SDS011;36703;48.154;17.126;2022-07-04T13:29:30;3.60;;;1.60;;
50737;SDS011;36703;48.154;17.126;2022-07-04T13:33:31;3.70;;;1.48;;
50737;SDS011;36703;48.154;17.126;2022-07-04T13:37:33;3.17;;;1.40;;
50737;SDS011;36703;48.154;17.126;2022-07-04T13:41:34;5.00;;;1.40;;
50737;SDS011;36703;48.154;17.126;2022-07-04T13:45:35;6.53;;;2.10;;
50737;SDS011;36703;48.154;17.126;2022-07-04T13:49:39;8.43;;;1.25;;
50737;SDS011;36703;48.154;17.126;2022-07-04T13:53:41;3.85;;;1.65;;
50737;SDS011;36703;48.154;17.126;2022-07-04T13:57:42;3.22;;;1.73;;
50737;SDS011;36703;48.154;17.126;2022-07-04T14:01:44;2.88;;;1.45;;
50737;SDS011;36703;48.154;17.126;2022-07-04T14:05:48;4.15;;;1.60;;
50737;SDS011;36703;48.154;17.126;2022-07-04T14:09:49;7.47;;;1.40;;
50737;SDS011;36703;48.154;17.126;2022-07-04T14:13:50;2.97;;;1.60;;
50737;SDS011;36703;48.154;17.126;2022-07-04T14:17:51;3.45;;;1.55;;
50737;SDS011;36703;48.154;17.126;2022-07-04T14:21:53;5.00;;;1.35;;
50737;SDS011;36703;48.154;17.126;2022-07-04T14:25:54;8.60;;;1.80;;
50737;SDS011;36703;48.154;17.126;2022-07-04T14:29:55;4.60;;;1.40;;
50737;SDS011;36703;48.154;17.126;2022-07-04T14:33:56;2.15;;;1.40;;
50737;SDS011;36703;48.154;17.126;2022-07-04T14:37:58;5.60;;;1.45;;
50737;SDS011;36703;48.154;17.126;2022-07-04T14:41:59;7.05;;;1.50;;
50737;SDS011;36703;48.154;17.126;2022-07-04T14:46:00;2.20;;;1.35;;
50737;SDS011;36703;48.154;17.126;2022-07-04T14:50:02;2.13;;;1.27;;
50737;SDS011;36703;48.154;17.126;2022-07-04T14:54:04;2.30;;;1.30;;
50737;SDS011;36703;48.154;17.126;2022-07-04T14:58:05;2.33;;;1.50;;
50737;SDS011;36703;48.154;17.126;2022-07-04T15:02:06;3.30;;;1.30;;
50737;SDS011;36703;48.154;17.126;2022-07-04T15:06:07;1.38;;;1.20;;
50737;SDS011;36703;48.154;17.126;2022-07-04T15:10:09;3.75;;;1.10;;
50737;SDS011;36703;48.154;17.126;2022-07-04T15:14:10;2.92;;;1.10;;
50737;SDS011;36703;48.154;17.126;2022-07-04T15:18:11;3.05;;;1.25;;
50737;SDS011;36703;48.154;17.126;2022-07-04T15:22:12;11.07;;;1.65;;
50737;SDS011;36703;48.154;17.126;2022-07-04T15:26:32;7.28;;;1.10;;
50737;SDS011;36703;48.154;17.126;2022-07-04T15:30:33;2.40;;;1.00;;
50737;SDS011;36703;48.154;17.126;2022-07-04T15:34:35;1.17;;;0.90;;
50737;SDS011;36703;48.154;17.126;2022-07-04T15:38:36;2.88;;;1.02;;
50737;SDS011;36703;48.154;17.126;2022-07-04T15:42:37;8.40;;;1.77;;
50737;SDS011;36703;48.154;17.126;2022-07-04T15:46:39;4.85;;;1.17;;
50737;SDS011;36703;48.154;17.126;2022-07-04T15:51:00;4.88;;;0.90;;
50737;SDS011;36703;48.154;17.126;2022-07-04T15:55:02;1.70;;;0.80;;
50737;SDS011;36703;48.154;17.126;2022-07-04T15:59:04;1.08;;;0.98;;
50737;SDS011;36703;48.154;17.126;2022-07-04T16:03:05;1.63;;;0.60;;
50737;SDS011;36703;48.154;17.126;2022-07-04T16:07:07;2.28;;;0.88;;
50737;SDS011;36703;48.154;17.126;2022-07-04T16:11:08;1.13;;;0.90;;
50737;SDS011;36703;48.154;17.126;2022-07-04T16:15:10;1.65;;;0.80;;
50737;SDS011;36703;48.154;17.126;2022-07-04T16:19:11;3.08;;;0.90;;
50737;SDS011;36703;48.154;17.126;2022-07-04T16:23:12;3.03;;;1.10;;
50737;SDS011;36703;48.154;17.126;2022-07-04T16:27:13;1.38;;;1.00;;
50737;SDS011;36703;48.154;17.126;2022-07-04T16:31:15;2.38;;;1.00;;
50737;SDS011;36703;48.154;17.126;2022-07-04T16:35:18;5.82;;;1.20;;
50737;SDS011;36703;48.154;17.126;2022-07-04T16:39:19;5.47;;;1.00;;
50737;SDS011;36703;48.154;17.126;2022-07-04T16:43:20;2.33;;;1.05;;
50737;SDS011;36703;48.154;17.126;2022-07-04T16:47:22;3.38;;;0.80;;
50737;SDS011;36703;48.154;17.126;2022-07-04T16:51:23;2.53;;;1.20;;
50737;SDS011;36703;48.154;17.126;2022-07-04T16:55:24;2.42;;;1.50;;
50737;SDS011;36703;48.154;17.126;2022-07-04T16:59:25;3.13;;;1.65;;
50737;SDS011;36703;48.154;17.126;2022-07-04T17:03:27;2.85;;;1.27;;
50737;SDS011;36703;48.154;17.126;2022-07-04T17:07:28;2.10;;;1.08;;
50737;SDS011;36703;48.154;17.126;2022-07-04T17:11:29;4.68;;;1.40;;
50737;SDS011;36703;48.154;17.126;2022-07-04T17:15:31;6.45;;;1.40;;
50737;SDS011;36703;48.154;17.126;2022-07-04T17:19:34;5.78;;;1.60;;
50737;SDS011;36703;48.154;17.126;2022-07-04T17:23:35;5.97;;;1.90;;
50737;SDS011;36703;48.154;17.126;2022-07-04T17:27:36;3.83;;;1.40;;
50737;SDS011;36703;48.154;17.126;2022-07-04T17:31:37;7.63;;;1.73;;
50737;SDS011;36703;48.154;17.126;2022-07-04T17:35:39;8.30;;;1.58;;
50737;SDS011;36703;48.154;17.126;2022-07-04T17:39:41;3.08;;;1.40;;
50737;SDS011;36703;48.154;17.126;2022-07-04T17:43:42;6.03;;;1.75;;
50737;SDS011;36703;48.154;17.126;2022-07-04T17:47:43;4.78;;;1.80;;
50737;SDS011;36703;48.154;17.126;2022-07-04T17:51:44;8.30;;;2.00;;
50737;SDS011;36703;48.154;17.126;2022-07-04T17:55:46;7.50;;;1.73;;
50737;SDS011;36703;48.154;17.126;2022-07-04T17:59:49;10.48;;;2.00;;
50737;SDS011;36703;48.154;17.126;2022-07-04T18:03:51;4.57;;;1.65;;
50737;SDS011;36703;48.154;17.126;2022-07-04T18:07:55;4.53;;;1.77;;
50737;SDS011;36703;48.154;17.126;2022-07-04T18:11:57;8.55;;;1.90;;
50737;SDS011;36703;48.154;17.126;2022-07-04T18:16:00;5.25;;;1.75;;
50737;SDS011;36703;48.154;17.126;2022-07-04T18:20:01;8.13;;;1.95;;
50737;SDS011;36703;48.154;17.126;2022-07-04T18:24:02;8.15;;;2.25;;
50737;SDS011;36703;48.154;17.126;2022-07-04T18:28:04;11.50;;;2.05;;
50737;SDS011;36703;48.154;17.126;2022-07-04T18:32:06;11.68;;;1.90;;
50737;SDS011;36703;48.154;17.126;2022-07-04T18:36:07;10.65;;;2.03;;
50737;SDS011;36703;48.154;17.126;2022-07-04T18:40:09;9.80;;;2.00;;
50737;SDS011;36703;48.154;17.126;2022-07-04T18:44:29;6.60;;;2.20;;
50737;SDS011;36703;48.154;17.126;2022-07-04T18:48:32;6.93;;;1.58;;
50737;SDS011;36703;48.154;17.126;2022-07-04T18:52:35;7.88;;;1.70;;
50737;SDS011;36703;48.154;17.126;2022-07-04T18:56:36;7.45;;;1.90;;
50737;SDS011;36703;48.154;17.126;2022-07-04T19:00:38;6.25;;;1.58;;
50737;SDS011;36703;48.154;17.126;2022-07-04T19:04:39;3.35;;;1.50;;
50737;SDS011;36703;48.154;17.126;2022-07-04T19:08:40;4.72;;;1.63;;
50737;SDS011;36703;48.154;17.126;2022-07-04T19:12:42;4.00;;;1.27;;
50737;SDS011;36703;48.154;17.126;2022-07-04T19:16:43;4.05;;;1.20;;
50737;SDS011;36703;48.154;17.126;2022-07-04T19:20:45;4.88;;;1.30;;
50737;SDS011;36703;48.154;17.126;2022-07-04T19:24:46;6.03;;;1.60;;
50737;SDS011;36703;48.154;17.126;2022-07-04T19:28:47;4.63;;;1.30;;
50737;SDS011;36703;48.154;17.126;2022-07-04T19:32:49;1.45;;;1.20;;
50737;SDS011;36703;48.154;17.126;2022-07-04T19:36:50;5.13;;;1.27;;
50737;SDS011;36703;48.154;17.126;2022-07-04T19:40:51;2.97;;;1.45;;
50737;SDS011;36703;48.154;17.126;2022-07-04T19:44:53;6.95;;;1.50;;
50737;SDS011;36703;48.154;17.126;2022-07-04T19:48:54;1.90;;;1.30;;
50737;SDS011;36703;48.154;17.126;2022-07-04T19:52:56;5.85;;;1.58;;
50737;SDS011;36703;48.154;17.126;2022-07-04T19:56:59;2.63;;;1.60;;
50737;SDS011;36703;48.154;17.126;2022-07-04T20:01:00;4.93;;;1.52;;
50737;SDS011;36703;48.154;17.126;2022-07-04T20:05:03;3.85;;;1.50;;
50737;SDS011;36703;48.154;17.126;2022-07-04T20:09:10;2.17;;;1.50;;
50737;SDS011;36703;48.154;17.126;2022-07-04T20:13:12;6.13;;;1.30;;
50737;SDS011;36703;48.154;17.126;2022-07-04T20:17:15;2.63;;;1.45;;
50737;SDS011;36703;48.154;17.126;2022-07-04T20:21:21;2.45;;;1.15;;
50737;SDS011;36703;48.154;17.126;2022-07-04T20:25:22;2.40;;;1.38;;
50737;SDS011;36703;48.154;17.126;2022-07-04T20:29:24;4.53;;;1.80;;
50737;SDS011;36703;48.154;17.126;2022-07-04T20:33:25;4.22;;;1.60;;
50737;SDS011;36703;48.154;17.126;2022-07-04T20:37:26;2.33;;;1.58;;
50737;SDS011;36703;48.154;17.126;2022-07-04T20:41:29;1.80;;;1.33;;
50737;SDS011;36703;48.154;17.126;2022-07-04T20:45:30;2.35;;;1.40;;
50737;SDS011;36703;48.154;17.126;2022-07-04T20:49:31;1.75;;;1.13;;
50737;SDS011;36703;48.154;17.126;2022-07-04T20:53:32;2.75;;;1.38;;
50737;SDS011;36703;48.154;17.126;2022-07-04T20:57:34;2.58;;;1.40;;
50737;SDS011;36703;48.154;17.126;2022-07-04T21:01:35;2.45;;;1.75;;
50737;SDS011;36703;48.154;17.126;2022-07-04T21:05:37;2.85;;;1.63;;
50737;SDS011;36703;48.154;17.126;2022-07-04T21:09:38;3.00;;;1.40;;
50737;SDS011;36703;48.154;17.126;2022-07-04T21:13:39;2.03;;;1.77;;
50737;SDS011;36703;48.154;17.126;2022-07-04T21:17:41;4.53;;;1.70;;
50737;SDS011;36703;48.154;17.126;2022-07-04T21:21:43;2.42;;;1.45;;
50737;SDS011;36703;48.154;17.126;2022-07-04T21:25:45;2.25;;;1.30;;
50737;SDS011;36703;48.154;17.126;2022-07-04T21:29:46;2.20;;;1.20;;
50737;SDS011;36703;48.154;17.126;2022-07-04T21:33:47;1.38;;;1.17;;
50737;SDS011;36703;48.154;17.126;2022-07-04T21:37:49;3.55;;;1.20;;
50737;SDS011;36703;48.154;17.126;2022-07-04T21:41:50;2.38;;;1.27;;
50737;SDS011;36703;48.154;17.126;2022-07-04T21:45:52;1.42;;;1.15;;
50737;SDS011;36703;48.154;17.126;2022-07-04T21:49:53;1.20;;;1.10;;
50737;SDS011;36703;48.154;17.126;2022-07-04T21:53:55;2.40;;;1.08;;
50737;SDS011;36703;48.154;17.126;2022-07-04T21:57:57;2.20;;;1.00;;
50737;SDS011;36703;48.154;17.126;2022-07-04T22:02:01;2.58;;;1.30;;
50737;SDS011;36703;48.154;17.126;2022-07-04T22:06:02;2.50;;;1.10;;
50737;SDS011;36703;48.154;17.126;2022-07-04T22:10:04;3.78;;;1.10;;
50737;SDS011;36703;48.154;17.126;2022-07-04T22:14:06;3.17;;;1.13;;
50737;SDS011;36703;48.154;17.126;2022-07-04T22:18:07;5.40;;;1.38;;
50737;SDS011;36703;48.154;17.126;2022-07-04T22:22:08;3.15;;;1.20;;
50737;SDS011;36703;48.154;17.126;2022-07-04T22:26:10;1.92;;;1.08;;
50737;SDS011;36703;48.154;17.126;2022-07-04T22:30:11;2.78;;;1.33;;
50737;SDS011;36703;48.154;17.126;2022-07-04T22:34:13;3.35;;;1.40;;
50737;SDS011;36703;48.154;17.126;2022-07-04T22:38:14;2.53;;;1.30;;
50737;SDS011;36703;48.154;17.126;2022-07-04T22:42:15;2.30;;;1.30;;
50737;SDS011;36703;48.154;17.126;2022-07-04T22:46:16;1.95;;;1.40;;
50737;SDS011;36703;48.154;17.126;2022-07-04T22:50:17;2.33;;;1.25;;
50737;SDS011;36703;48.154;17.126;2022-07-04T22:54:19;2.22;;;1.30;;
50737;SDS011;36703;48.154;17.126;2022-07-04T22:58:38;1.90;;;1.40;;
50737;SDS011;36703;48.154;17.126;2022-07-04T23:02:41;2.30;;;1.50;;
50737;SDS011;36703;48.154;17.126;2022-07-04T23:06:43;2.22;;;1.50;;
50737;SDS011;36703;48.154;17.126;2022-07-04T23:10:44;2.15;;;1.10;;
50737;SDS011;36703;48.154;17.126;2022-07-04T23:14:46;3.20;;;1.65;;
50737;SDS011;36703;48.154;17.126;2022-07-04T23:18:48;2.70;;;1.80;;
50737;SDS011;36703;48.154;17.126;2022-07-04T23:22:49;2.47;;;1.52;;
50737;SDS011;36703;48.154;17.126;2022-07-04T23:26:50;2.05;;;1.40;;
50737;SDS011;36703;48.154;17.126;2022-07-04T23:30:51;3.15;;;1.67;;
50737;SDS011;36703;48.154;17.126;2022-07-04T23:34:52;2.33;;;1.88;;
50737;SDS011;36703;48.154;17.126;2022-07-04T23:38:55;2.63;;;1.70;;
50737;SDS011;36703;48.154;17.126;2022-07-04T23:42:56;3.05;;;1.90;;
50737;SDS011;36703;48.154;17.126;2022-07-04T23:46:57;2.15;;;1.55;;
50737;SDS011;36703;48.154;17.126;2022-07-04T23:50:58;4.47;;;1.80;;
50737;SDS011;36703;48.154;17.126;2022-07-04T23:55:00;1.77;;;1.40;;
50737;SDS011;36703;48.154;17.126;2022-07-04T23:59:01;1.90;;;1.33;;
